KTVC/TVC METAR and TAF weather

Enter ICAO airport designator
Station Type Date Time Source
KTVC METAR 2020/01/18 15:53 UTC NOAA

KTVC 181553Z VRB04KT 3SM -SN BKN026 OVC042 M02/M06 A2965 RMK AO2 SFC VIS 6 SLP048 P0000 T10221056


Station Type Date Time Source
KTVC Decoded METAR 2020/01/18 15:53 UTC NOAA

CHERRY CAPITAL AIRPORT, MI, United States (KTVC) 44-44N 085-34W 190M
Jan 18, 2020 - 10:53 AM EST / 2020.01.18 1553 UTC
Wind: Variable at 5 MPH (4 KT):0
Visibility: 3 mile(s):0
Sky conditions: overcast
Weather: light snow
Precipitation last hour: A trace
Temperature: 28.0 F (-2.2 C)
Windchill: 23 F (-5 C):1
Dew Point: 21.9 F (-5.6 C)
Relative Humidity: 77%
Pressure (altimeter): 29.65 in. Hg (1004 hPa)
ob: KTVC 181553Z VRB04KT 3SM -SN BKN026 OVC042 M02/M06 A2965 RMK AO2 SFC VIS 6 SLP048 P0000 T10221056
cycle: 16

Station Type Date Time Source
KTVC TAF 2020/01/18 14:59 UTC NOAA

TAF
AMD KTVC 181359Z 1814/1912 13006G18KT 6SM -SN BR BKN022 OVC060 WS020/15040KT
TEMPO 1814/1816 3SM -SN OVC012
FM181600 13013G26KT 1SM -SN OVC019
FM182000 18006KT 1SM -SN OVC008
FM182300 28009KT 2SM -SN OVC010
FM190100 28011G21KT 3SM -SN OVC011
FM191000 31013G22KT 1 1/2SM -SHSN OVC017

Example: see airport list